Irini — SYZA — position and weather

sailwx.info

Track history (hours):
 
Tides and Currents Weather Stations Pressure Air Temp Water Temp Dewpoint Dewpoint Depression Visibility Wind Speed Wind Dir Waves Ship Positions

Irini

Last reported at 2017-Oct-16 10:23 UTC. Time now 2017-Oct-17 09:55 UTC.
Position N 39°30' E 023°22'.

Length 137 m; draft 7.4 m.

Type: Ship (hazmat cat A). MMSI: 240052000.

Date/timePositionNaut miles runAvg speedWind from/ knotsBaromVisibWave heightAir tempDewpointWater temp
2017-Oct-16 10:23N 39°30' E 023°22'2610.2
2017-Oct-16 07:52N 39°06' E 023°35'86 8.4
2017-Oct-15 21:32N 37°49' E 024°24'19 9.4
2017-Oct-15 19:32N 37°37' E 024°05'210.2
2017-Oct-15 19:19N 37°37' E 024°02'610.7
2017-Oct-15 18:47N 37°37' E 023°55'310.8
2017-Oct-15 18:30N 37°38' E 023°51'510.4
2017-Oct-15 18:00N 37°39' E 023°45'510.5
2017-Oct-15 17:30N 37°43' E 023°41'611.2
2017-Oct-15 17:00N 37°48' E 023°37'611.1
2017-Oct-15 16:30N 37°54' E 023°37'4 8.3
2017-Oct-15 16:00N 37°57' E 023°34'4 7.5
2017-Oct-15 15:30N 38°01' E 023°35'1 1.3
2017-Oct-15 14:55N 38°01' E 023°36'0 0.0
2017-Oct-15 13:55N 38°01' E 023°36'0 0.0
2017-Oct-15 13:19N 38°01' E 023°36'0 0.0
2017-Oct-15 12:49N 38°01' E 023°36'0 0.0
2017-Oct-15 12:19N 38°01' E 023°36'0 0.0
2017-Oct-15 11:49N 38°01' E 023°36'0 0.0
2017-Oct-15 11:25N 38°01' E 023°36'0 0.0
2017-Oct-15 10:55N 38°01' E 023°36'0 0.0
2017-Oct-15 10:25N 38°01' E 023°36'0 0.0
2017-Oct-15 09:55N 38°01' E 023°36'0 0.0
2017-Oct-15 09:13N 38°01' E 023°36'0 0.0
2017-Oct-15 08:55N 38°01' E 023°36'0 0.0
2017-Oct-15 08:25N 38°01' E 023°36'0 0.0
2017-Oct-15 07:55N 38°01' E 023°36'0 0.0
2017-Oct-15 07:19N 38°01' E 023°36'0 0.0
2017-Oct-15 06:55N 38°01' E 023°36'0 0.0
2017-Oct-15 06:13N 38°01' E 023°36'0 0.0
2017-Oct-15 05:49N 38°01' E 023°36'0 0.0
2017-Oct-15 05:25N 38°01' E 023°36'0 0.0
2017-Oct-15 04:49N 38°01' E 023°36'0 0.0
2017-Oct-15 04:19N 38°01' E 023°36'0 0.0
2017-Oct-15 02:31N 38°01' E 023°36'0 0.0
2017-Oct-15 02:07N 38°01' E 023°36'0 0.0
2017-Oct-15 01:55N 38°01' E 023°36'0 0.0
2017-Oct-15 01:25N 38°01' E 023°36'0 0.0
2017-Oct-15 00:43N 38°01' E 023°36'0 0.0
2017-Oct-15 00:25N 38°01' E 023°36'0 0.0
2017-Oct-14 23:37N 38°01' E 023°36'0 0.0
2017-Oct-14 23:25N 38°01' E 023°36'0 0.0
2017-Oct-14 22:55N 38°01' E 023°36'0 0.0
2017-Oct-14 22:25N 38°01' E 023°36'0 0.0
2017-Oct-14 21:49N 38°01' E 023°36'0 0.0
2017-Oct-14 21:25N 38°01' E 023°36'0 0.0
2017-Oct-14 20:55N 38°01' E 023°36'0 0.0
2017-Oct-14 20:19N 38°01' E 023°36'0 0.0
2017-Oct-14 19:55N 38°01' E 023°36'0 0.0
2017-Oct-14 19:25N 38°01' E 023°36'0 0.0
2017-Oct-14 18:43N 38°01' E 023°36'0 0.0
2017-Oct-14 18:25N 38°01' E 023°36'0 0.0
2017-Oct-14 17:49N 38°01' E 023°36'0 0.0
2017-Oct-14 17:25N 38°01' E 023°36'0 0.0
2017-Oct-14 16:55N 38°01' E 023°36'0 0.0
2017-Oct-14 16:07N 38°01' E 023°36'0 0.0
2017-Oct-14 15:55N 38°01' E 023°36'0 0.0
2017-Oct-14 15:13N 38°01' E 023°36'0 0.0
2017-Oct-14 14:55N 38°01' E 023°36'0 0.0
2017-Oct-14 14:19N 38°01' E 023°36'0 0.0
2017-Oct-14 13:43N 38°01' E 023°36'0 0.0
2017-Oct-14 13:25N 38°01' E 023°36'0 0.0
2017-Oct-14 12:43N 38°01' E 023°36'0 0.0
2017-Oct-14 12:25N 38°01' E 023°36'0 0.0
2017-Oct-14 11:49N 38°01' E 023°36'0 0.0
2017-Oct-14 11:25N 38°01' E 023°36'0 0.0
2017-Oct-14 10:55N 38°01' E 023°36'0 0.0
2017-Oct-14 10:25N 38°01' E 023°36'0 1.1
2017-Oct-14 10:00N 38°01' E 023°35'3 6.8
2017-Oct-14 09:31N 37°58' E 023°33'4 7.5
2017-Oct-14 09:01N 37°55' E 023°36'2 3.5
2017-Oct-14 08:31N 37°54' E 023°36'5 9.0
2017-Oct-14 08:01N 37°50' E 023°39'510.7
2017-Oct-14 07:31N 37°45' E 023°42'510.6
2017-Oct-14 07:00N 37°40' E 023°45'611.0
2017-Oct-14 06:30N 37°38' E 023°52'2010.4
2017-Oct-14 04:35N 37°44' E 024°16'3710.5
2017-Oct-14 01:04N 38°18' E 024°32'412.2
2017-Oct-14 00:46N 38°21' E 024°30'  
2017-Oct-08 12:39N 37°37' E 024°05'210.6
2017-Oct-08 12:26N 37°37' E 024°02'611.2
2017-Oct-08 11:54N 37°37' E 023°55'411.0
2017-Oct-08 11:31N 37°38' E 023°49'611.0
2017-Oct-08 11:00N 37°40' E 023°43'611.4
2017-Oct-08 10:30N 37°45' E 023°40'611.3
2017-Oct-08 10:00N 37°50' E 023°37'510.9
2017-Oct-08 09:30N 37°56' E 023°37'4 7.9
2017-Oct-08 09:00N 37°58' E 023°33'4 7.4
2017-Oct-08 08:30N 38°02' E 023°32'0 0.4
2017-Oct-08 07:59N 38°02' E 023°31'0 0.0
2017-Oct-08 07:26N 38°02' E 023°31'0 0.0
2017-Oct-08 06:59N 38°02' E 023°31'0 0.0
2017-Oct-08 06:26N 38°02' E 023°31'0 0.0
2017-Oct-08 05:56N 38°02' E 023°31'0 0.0
2017-Oct-08 05:29N 38°02' E 023°31'0 0.0
2017-Oct-08 04:50N 38°02' E 023°31'0 0.0
2017-Oct-08 04:26N 38°02' E 023°31'0 0.0
2017-Oct-08 03:59N 38°02' E 023°31'0 0.0
2017-Oct-08 03:29N 38°02' E 023°31'0 0.0
2017-Oct-08 02:59N 38°02' E 023°31'0 0.0
2017-Oct-08 02:29N 38°02' E 023°31'0 0.0
2017-Oct-08 01:59N 38°02' E 023°31'0 0.0
2017-Oct-08 01:29N 38°02' E 023°31'0 0.0
2017-Oct-08 00:59N 38°02' E 023°31'0 0.0
2017-Oct-08 00:29N 38°02' E 023°31'0 0.0
2017-Oct-07 23:59N 38°02' E 023°31'0 0.0
2017-Oct-07 23:29N 38°02' E 023°31'0 0.0
2017-Oct-07 22:59N 38°02' E 023°31'0 0.0
2017-Oct-07 22:26N 38°02' E 023°31'0 0.0
2017-Oct-07 21:56N 38°02' E 023°31'0 0.1
2017-Oct-07 21:29N 38°02' E 023°31'1 1.1
2017-Oct-07 21:00N 38°02' E 023°31'0 0.3
2017-Oct-07 20:28N 38°02' E 023°31'0 0.0
2017-Oct-07 19:58N 38°02' E 023°31'0 0.0
2017-Oct-07 19:29N 38°02' E 023°31'0 0.0
2017-Oct-07 18:58N 38°02' E 023°31'0 0.0
2017-Oct-07 18:28N 38°02' E 023°31'0 0.0
2017-Oct-07 17:58N 38°02' E 023°31'0 0.0
2017-Oct-07 17:28N 38°02' E 023°31'0 0.0
2017-Oct-07 16:49N 38°02' E 023°31'0 0.0
2017-Oct-07 16:28N 38°02' E 023°31'0 0.0
2017-Oct-07 15:58N 38°02' E 023°31'0 0.0
2017-Oct-07 15:25N 38°02' E 023°31'0 0.0
2017-Oct-07 14:58N 38°02' E 023°31'0 0.0
2017-Oct-07 14:25N 38°02' E 023°31'0 0.0
2017-Oct-07 13:55N 38°02' E 023°31'0 0.0
2017-Oct-07 13:25N 38°02' E 023°31'0 0.0
2017-Oct-07 12:58N 38°02' E 023°31'0 0.0
2017-Oct-07 12:28N 38°02' E 023°31'0 0.0
2017-Oct-07 11:58N 38°02' E 023°31'0 0.0
2017-Oct-07 11:25N 38°02' E 023°31'0 0.0
2017-Oct-07 10:55N 38°02' E 023°31'0 0.0
2017-Oct-07 10:22N 38°02' E 023°31'0 0.0
2017-Oct-07 09:58N 38°02' E 023°31'0 0.0
2017-Oct-07 09:28N 38°02' E 023°31'0 0.0
2017-Oct-07 08:55N 38°02' E 023°31'0 0.0
2017-Oct-07 08:28N 38°02' E 023°31'0 0.0
2017-Oct-07 07:58N 38°02' E 023°31'0 0.0
2017-Oct-07 07:25N 38°02' E 023°31'0 0.0
2017-Oct-07 06:58N 38°02' E 023°31'0 0.0
2017-Oct-07 06:28N 38°02' E 023°31'0 0.0
2017-Oct-07 05:58N 38°02' E 023°31'0 0.0
2017-Oct-07 05:28N 38°02' E 023°31'0 0.0
2017-Oct-07 04:55N 38°02' E 023°31'0 0.0
2017-Oct-07 04:28N 38°02' E 023°31'0 0.0
2017-Oct-07 03:55N 38°02' E 023°31'0 0.0
2017-Oct-07 03:28N 38°02' E 023°31'0 0.0
2017-Oct-07 02:58N 38°02' E 023°31'0 0.0
2017-Oct-07 02:28N 38°02' E 023°31'0 0.0
2017-Oct-07 01:58N 38°02' E 023°31'0 0.0
2017-Oct-07 01:28N 38°02' E 023°31'0 0.0
2017-Oct-07 00:58N 38°02' E 023°31'0 0.0
2017-Oct-07 00:28N 38°02' E 023°31'0 0.0
2017-Oct-06 23:58N 38°02' E 023°31'0 0.0
2017-Oct-06 23:25N 38°02' E 023°31'0 0.0
2017-Oct-06 22:58N 38°02' E 023°31'0 0.0
2017-Oct-06 22:28N 38°02' E 023°31'0 0.0
2017-Oct-06 21:58N 38°02' E 023°31'0 0.0
2017-Oct-06 21:28N 38°02' E 023°31'0 0.0
2017-Oct-06 20:58N 38°02' E 023°31'0 0.0
2017-Oct-06 20:28N 38°02' E 023°31'0 0.0
2017-Oct-06 19:58N 38°02' E 023°31'0 0.0
2017-Oct-06 19:28N 38°02' E 023°31'0 0.0
2017-Oct-06 18:58N 38°02' E 023°31'0 0.0
2017-Oct-06 18:28N 38°02' E 023°31'0 0.0
2017-Oct-06 17:58N 38°02' E 023°31'0 0.0
2017-Oct-06 17:25N 38°02' E 023°31'0 0.0
2017-Oct-06 16:58N 38°02' E 023°31'0 0.0
2017-Oct-06 16:28N 38°02' E 023°31'0 0.0
2017-Oct-06 15:58N 38°02' E 023°31'0 0.0
2017-Oct-06 15:28N 38°02' E 023°31'0 0.0
2017-Oct-06 14:58N 38°02' E 023°31'0 0.0
2017-Oct-06 14:28N 38°02' E 023°31'0 0.0
2017-Oct-06 13:55N 38°02' E 023°31'0 0.0
2017-Oct-06 13:28N 38°02' E 023°31'0 0.0
2017-Oct-06 12:58N 38°02' E 023°31'0 0.0
2017-Oct-06 12:25N 38°02' E 023°31'0 0.0
2017-Oct-06 11:55N 38°02' E 023°31'0 0.0
2017-Oct-06 11:28N 38°02' E 023°31'0 0.0
2017-Oct-06 10:55N 38°02' E 023°31'0 0.0
2017-Oct-06 10:25N 38°02' E 023°31'  
Track history (hours):
 
Tides and Currents Weather Stations Pressure Air Temp Water Temp Dewpoint Dewpoint Depression Visibility Wind Speed Wind Dir Waves Ship Positions

Irini

Last reported at 2017-Oct-16 10:23 UTC. Time now 2017-Oct-17 09:55 UTC.
Position N 39°30' E 023°22'.

Length 137 m; draft 7.4 m.

Type: Ship (hazmat cat A). MMSI: 240052000.

Date/timePositionNaut miles runAvg speedWind from/ knotsBaromVisibWave heightAir tempDewpointWater temp
2017-Oct-16 10:23N 39°30' E 023°22'2610.2
2017-Oct-16 07:52N 39°06' E 023°35'86 8.4
2017-Oct-15 21:32N 37°49' E 024°24'19 9.4
2017-Oct-15 19:32N 37°37' E 024°05'210.2
2017-Oct-15 19:19N 37°37' E 024°02'610.7
2017-Oct-15 18:47N 37°37' E 023°55'310.8
2017-Oct-15 18:30N 37°38' E 023°51'510.4
2017-Oct-15 18:00N 37°39' E 023°45'510.5
2017-Oct-15 17:30N 37°43' E 023°41'611.2
2017-Oct-15 17:00N 37°48' E 023°37'611.1
2017-Oct-15 16:30N 37°54' E 023°37'4 8.3
2017-Oct-15 16:00N 37°57' E 023°34'4 7.5
2017-Oct-15 15:30N 38°01' E 023°35'1 1.3
2017-Oct-15 14:55N 38°01' E 023°36'0 0.0
2017-Oct-15 13:55N 38°01' E 023°36'0 0.0
2017-Oct-15 13:19N 38°01' E 023°36'0 0.0
2017-Oct-15 12:49N 38°01' E 023°36'0 0.0
2017-Oct-15 12:19N 38°01' E 023°36'0 0.0
2017-Oct-15 11:49N 38°01' E 023°36'0 0.0
2017-Oct-15 11:25N 38°01' E 023°36'0 0.0
2017-Oct-15 10:55N 38°01' E 023°36'0 0.0
2017-Oct-15 10:25N 38°01' E 023°36'0 0.0
2017-Oct-15 09:55N 38°01' E 023°36'0 0.0
2017-Oct-15 09:13N 38°01' E 023°36'0 0.0
2017-Oct-15 08:55N 38°01' E 023°36'0 0.0
2017-Oct-15 08:25N 38°01' E 023°36'0 0.0
2017-Oct-15 07:55N 38°01' E 023°36'0 0.0
2017-Oct-15 07:19N 38°01' E 023°36'0 0.0
2017-Oct-15 06:55N 38°01' E 023°36'0 0.0
2017-Oct-15 06:13N 38°01' E 023°36'0 0.0
2017-Oct-15 05:49N 38°01' E 023°36'0 0.0
2017-Oct-15 05:25N 38°01' E 023°36'0 0.0
2017-Oct-15 04:49N 38°01' E 023°36'0 0.0
2017-Oct-15 04:19N 38°01' E 023°36'0 0.0
2017-Oct-15 02:31N 38°01' E 023°36'0 0.0
2017-Oct-15 02:07N 38°01' E 023°36'0 0.0
2017-Oct-15 01:55N 38°01' E 023°36'0 0.0
2017-Oct-15 01:25N 38°01' E 023°36'0 0.0
2017-Oct-15 00:43N 38°01' E 023°36'0 0.0
2017-Oct-15 00:25N 38°01' E 023°36'0 0.0
2017-Oct-14 23:37N 38°01' E 023°36'0 0.0
2017-Oct-14 23:25N 38°01' E 023°36'0 0.0
2017-Oct-14 22:55N 38°01' E 023°36'0 0.0
2017-Oct-14 22:25N 38°01' E 023°36'0 0.0
2017-Oct-14 21:49N 38°01' E 023°36'0 0.0
2017-Oct-14 21:25N 38°01' E 023°36'0 0.0
2017-Oct-14 20:55N 38°01' E 023°36'0 0.0
2017-Oct-14 20:19N 38°01' E 023°36'0 0.0
2017-Oct-14 19:55N 38°01' E 023°36'0 0.0
2017-Oct-14 19:25N 38°01' E 023°36'0 0.0
2017-Oct-14 18:43N 38°01' E 023°36'0 0.0
2017-Oct-14 18:25N 38°01' E 023°36'0 0.0
2017-Oct-14 17:49N 38°01' E 023°36'0 0.0
2017-Oct-14 17:25N 38°01' E 023°36'0 0.0
2017-Oct-14 16:55N 38°01' E 023°36'0 0.0
2017-Oct-14 16:07N 38°01' E 023°36'0 0.0
2017-Oct-14 15:55N 38°01' E 023°36'0 0.0
2017-Oct-14 15:13N 38°01' E 023°36'0 0.0
2017-Oct-14 14:55N 38°01' E 023°36'0 0.0
2017-Oct-14 14:19N 38°01' E 023°36'0 0.0
2017-Oct-14 13:43N 38°01' E 023°36'0 0.0
2017-Oct-14 13:25N 38°01' E 023°36'0 0.0
2017-Oct-14 12:43N 38°01' E 023°36'0 0.0
2017-Oct-14 12:25N 38°01' E 023°36'0 0.0
2017-Oct-14 11:49N 38°01' E 023°36'0 0.0
2017-Oct-14 11:25N 38°01' E 023°36'0 0.0
2017-Oct-14 10:55N 38°01' E 023°36'0 0.0
2017-Oct-14 10:25N 38°01' E 023°36'0 1.1
2017-Oct-14 10:00N 38°01' E 023°35'3 6.8
2017-Oct-14 09:31N 37°58' E 023°33'4 7.5
2017-Oct-14 09:01N 37°55' E 023°36'2 3.5
2017-Oct-14 08:31N 37°54' E 023°36'5 9.0
2017-Oct-14 08:01N 37°50' E 023°39'510.7
2017-Oct-14 07:31N 37°45' E 023°42'510.6
2017-Oct-14 07:00N 37°40' E 023°45'611.0
2017-Oct-14 06:30N 37°38' E 023°52'2010.4
2017-Oct-14 04:35N 37°44' E 024°16'3710.5
2017-Oct-14 01:04N 38°18' E 024°32'412.2
2017-Oct-14 00:46N 38°21' E 024°30'  
2017-Oct-08 12:39N 37°37' E 024°05'210.6
2017-Oct-08 12:26N 37°37' E 024°02'611.2
2017-Oct-08 11:54N 37°37' E 023°55'411.0
2017-Oct-08 11:31N 37°38' E 023°49'611.0
2017-Oct-08 11:00N 37°40' E 023°43'611.4
2017-Oct-08 10:30N 37°45' E 023°40'611.3
2017-Oct-08 10:00N 37°50' E 023°37'510.9
2017-Oct-08 09:30N 37°56' E 023°37'4 7.9
2017-Oct-08 09:00N 37°58' E 023°33'4 7.4
2017-Oct-08 08:30N 38°02' E 023°32'0 0.4
2017-Oct-08 07:59N 38°02' E 023°31'0 0.0
2017-Oct-08 07:26N 38°02' E 023°31'0 0.0
2017-Oct-08 06:59N 38°02' E 023°31'0 0.0
2017-Oct-08 06:26N 38°02' E 023°31'0 0.0
2017-Oct-08 05:56N 38°02' E 023°31'0 0.0
2017-Oct-08 05:29N 38°02' E 023°31'0 0.0
2017-Oct-08 04:50N 38°02' E 023°31'0 0.0
2017-Oct-08 04:26N 38°02' E 023°31'0 0.0
2017-Oct-08 03:59N 38°02' E 023°31'0 0.0
2017-Oct-08 03:29N 38°02' E 023°31'0 0.0
2017-Oct-08 02:59N 38°02' E 023°31'0 0.0
2017-Oct-08 02:29N 38°02' E 023°31'0 0.0
2017-Oct-08 01:59N 38°02' E 023°31'0 0.0
2017-Oct-08 01:29N 38°02' E 023°31'0 0.0
2017-Oct-08 00:59N 38°02' E 023°31'0 0.0
2017-Oct-08 00:29N 38°02' E 023°31'0 0.0
2017-Oct-07 23:59N 38°02' E 023°31'0 0.0
2017-Oct-07 23:29N 38°02' E 023°31'0 0.0
2017-Oct-07 22:59N 38°02' E 023°31'0 0.0
2017-Oct-07 22:26N 38°02' E 023°31'0 0.0
2017-Oct-07 21:56N 38°02' E 023°31'0 0.1
2017-Oct-07 21:29N 38°02' E 023°31'1 1.1
2017-Oct-07 21:00N 38°02' E 023°31'0 0.3
2017-Oct-07 20:28N 38°02' E 023°31'0 0.0
2017-Oct-07 19:58N 38°02' E 023°31'0 0.0
2017-Oct-07 19:29N 38°02' E 023°31'0 0.0
2017-Oct-07 18:58N 38°02' E 023°31'0 0.0
2017-Oct-07 18:28N 38°02' E 023°31'0 0.0
2017-Oct-07 17:58N 38°02' E 023°31'0 0.0
2017-Oct-07 17:28N 38°02' E 023°31'0 0.0
2017-Oct-07 16:49N 38°02' E 023°31'0 0.0
2017-Oct-07 16:28N 38°02' E 023°31'0 0.0
2017-Oct-07 15:58N 38°02' E 023°31'0 0.0
2017-Oct-07 15:25N 38°02' E 023°31'0 0.0
2017-Oct-07 14:58N 38°02' E 023°31'0 0.0
2017-Oct-07 14:25N 38°02' E 023°31'0 0.0
2017-Oct-07 13:55N 38°02' E 023°31'0 0.0
2017-Oct-07 13:25N 38°02' E 023°31'0 0.0
2017-Oct-07 12:58N 38°02' E 023°31'0 0.0
2017-Oct-07 12:28N 38°02' E 023°31'0 0.0
2017-Oct-07 11:58N 38°02' E 023°31'0 0.0
2017-Oct-07 11:25N 38°02' E 023°31'0 0.0
2017-Oct-07 10:55N 38°02' E 023°31'0 0.0
2017-Oct-07 10:22N 38°02' E 023°31'0 0.0
2017-Oct-07 09:58N 38°02' E 023°31'0 0.0
2017-Oct-07 09:28N 38°02' E 023°31'0 0.0
2017-Oct-07 08:55N 38°02' E 023°31'0 0.0
2017-Oct-07 08:28N 38°02' E 023°31'0 0.0
2017-Oct-07 07:58N 38°02' E 023°31'0 0.0
2017-Oct-07 07:25N 38°02' E 023°31'0 0.0
2017-Oct-07 06:58N 38°02' E 023°31'0 0.0
2017-Oct-07 06:28N 38°02' E 023°31'0 0.0
2017-Oct-07 05:58N 38°02' E 023°31'0 0.0
2017-Oct-07 05:28N 38°02' E 023°31'0 0.0
2017-Oct-07 04:55N 38°02' E 023°31'0 0.0
2017-Oct-07 04:28N 38°02' E 023°31'0 0.0
2017-Oct-07 03:55N 38°02' E 023°31'0 0.0
2017-Oct-07 03:28N 38°02' E 023°31'0 0.0
2017-Oct-07 02:58N 38°02' E 023°31'0 0.0
2017-Oct-07 02:28N 38°02' E 023°31'0 0.0
2017-Oct-07 01:58N 38°02' E 023°31'0 0.0
2017-Oct-07 01:28N 38°02' E 023°31'0 0.0
2017-Oct-07 00:58N 38°02' E 023°31'0 0.0
2017-Oct-07 00:28N 38°02' E 023°31'0 0.0
2017-Oct-06 23:58N 38°02' E 023°31'0 0.0
2017-Oct-06 23:25N 38°02' E 023°31'0 0.0
2017-Oct-06 22:58N 38°02' E 023°31'0 0.0
2017-Oct-06 22:28N 38°02' E 023°31'0 0.0
2017-Oct-06 21:58N 38°02' E 023°31'0 0.0
2017-Oct-06 21:28N 38°02' E 023°31'0 0.0
2017-Oct-06 20:58N 38°02' E 023°31'0 0.0
2017-Oct-06 20:28N 38°02' E 023°31'0 0.0
2017-Oct-06 19:58N 38°02' E 023°31'0 0.0
2017-Oct-06 19:28N 38°02' E 023°31'0 0.0
2017-Oct-06 18:58N 38°02' E 023°31'0 0.0
2017-Oct-06 18:28N 38°02' E 023°31'0 0.0
2017-Oct-06 17:58N 38°02' E 023°31'0 0.0
2017-Oct-06 17:25N 38°02' E 023°31'0 0.0
2017-Oct-06 16:58N 38°02' E 023°31'0 0.0
2017-Oct-06 16:28N 38°02' E 023°31'0 0.0
2017-Oct-06 15:58N 38°02' E 023°31'0 0.0
2017-Oct-06 15:28N 38°02' E 023°31'0 0.0
2017-Oct-06 14:58N 38°02' E 023°31'0 0.0
2017-Oct-06 14:28N 38°02' E 023°31'0 0.0
2017-Oct-06 13:55N 38°02' E 023°31'0 0.0
2017-Oct-06 13:28N 38°02' E 023°31'0 0.0
2017-Oct-06 12:58N 38°02' E 023°31'0 0.0
2017-Oct-06 12:25N 38°02' E 023°31'0 0.0
2017-Oct-06 11:55N 38°02' E 023°31'0 0.0
2017-Oct-06 11:28N 38°02' E 023°31'0 0.0
2017-Oct-06 10:55N 38°02' E 023°31'0 0.0
2017-Oct-06 10:25N 38°02' E 023°31'  

Dump ship's entire track history